sensor_id;sensor_type;location;lat;lon;timestamp;temperature;humidity
25410;DHT22;13339;50.840;4.346;2023-08-21T00:01:28;22.90;99.90
25410;DHT22;13339;50.840;4.346;2023-08-21T00:03:53;22.80;99.90
25410;DHT22;13339;50.840;4.346;2023-08-21T00:06:19;22.80;99.90
25410;DHT22;13339;50.840;4.346;2023-08-21T00:08:45;22.90;99.90
25410;DHT22;13339;50.840;4.346;2023-08-21T00:11:10;23.00;99.90
25410;DHT22;13339;50.840;4.346;2023-08-21T00:13:36;23.00;99.90
25410;DHT22;13339;50.840;4.346;2023-08-21T00:16:02;23.10;99.90
25410;DHT22;13339;50.840;4.346;2023-08-21T00:18:27;22.90;99.90
25410;DHT22;13339;50.840;4.346;2023-08-21T00:20:53;23.00;99.90
25410;DHT22;13339;50.840;4.346;2023-08-21T00:23:18;22.70;99.90
25410;DHT22;13339;50.840;4.346;2023-08-21T00:25:47;22.60;99.90
25410;DHT22;13339;50.840;4.346;2023-08-21T00:28:13;22.60;99.90
25410;DHT22;13339;50.840;4.346;2023-08-21T00:30:39;22.70;99.90
25410;DHT22;13339;50.840;4.346;2023-08-21T00:33:05;22.70;99.90
25410;DHT22;13339;50.840;4.346;2023-08-21T00:35:31;22.80;99.90
25410;DHT22;13339;50.840;4.346;2023-08-21T00:37:57;22.90;99.90
25410;DHT22;13339;50.840;4.346;2023-08-21T00:40:23;22.90;99.90
25410;DHT22;13339;50.840;4.346;2023-08-21T00:42:48;22.80;99.90
25410;DHT22;13339;50.840;4.346;2023-08-21T00:45:14;22.70;99.90
25410;DHT22;13339;50.840;4.346;2023-08-21T00:47:40;22.70;99.90
25410;DHT22;13339;50.840;4.346;2023-08-21T00:50:07;22.60;99.90
25410;DHT22;13339;50.840;4.346;2023-08-21T00:52:34;22.70;99.90
25410;DHT22;13339;50.840;4.346;2023-08-21T00:55:00;22.70;99.90
25410;DHT22;13339;50.840;4.346;2023-08-21T00:57:26;22.80;99.90
25410;DHT22;13339;50.840;4.346;2023-08-21T00:59:53;22.80;99.90
25410;DHT22;13339;50.840;4.346;2023-08-21T01:02:18;22.80;99.90
25410;DHT22;13339;50.840;4.346;2023-08-21T01:04:45;22.80;99.90
25410;DHT22;13339;50.840;4.346;2023-08-21T01:07:11;22.80;99.90
25410;DHT22;13339;50.840;4.346;2023-08-21T01:12:29;23.00;99.90
25410;DHT22;13339;50.840;4.346;2023-08-21T01:14:59;23.00;99.90
25410;DHT22;13339;50.840;4.346;2023-08-21T01:17:28;22.90;99.90
25410;DHT22;13339;50.840;4.346;2023-08-21T01:19:54;23.00;99.90
25410;DHT22;13339;50.840;4.346;2023-08-21T01:22:24;23.00;99.90
25410;DHT22;13339;50.840;4.346;2023-08-21T01:24:50;23.10;99.90
25410;DHT22;13339;50.840;4.346;2023-08-21T01:27:16;23.10;99.90
25410;DHT22;13339;50.840;4.346;2023-08-21T01:29:42;23.10;99.90
25410;DHT22;13339;50.840;4.346;2023-08-21T01:32:16;23.10;99.90
25410;DHT22;13339;50.840;4.346;2023-08-21T01:34:43;23.20;99.90
25410;DHT22;13339;50.840;4.346;2023-08-21T01:37:09;23.10;99.90
25410;DHT22;13339;50.840;4.346;2023-08-21T01:39:35;23.10;99.90
25410;DHT22;13339;50.840;4.346;2023-08-21T01:42:01;23.10;99.90
25410;DHT22;13339;50.840;4.346;2023-08-21T01:44:27;23.00;99.90
25410;DHT22;13339;50.840;4.346;2023-08-21T01:46:53;23.00;99.90
25410;DHT22;13339;50.840;4.346;2023-08-21T01:49:19;23.00;99.90
25410;DHT22;13339;50.840;4.346;2023-08-21T01:51:45;23.00;99.90
25410;DHT22;13339;50.840;4.346;2023-08-21T01:54:11;23.10;99.90
25410;DHT22;13339;50.840;4.346;2023-08-21T01:56:37;22.90;99.90
25410;DHT22;13339;50.840;4.346;2023-08-21T01:59:04;22.90;99.90
25410;DHT22;13339;50.840;4.346;2023-08-21T02:01:30;23.00;99.90
25410;DHT22;13339;50.840;4.346;2023-08-21T02:03:55;22.90;99.90
25410;DHT22;13339;50.840;4.346;2023-08-21T02:06:21;22.70;99.90
25410;DHT22;13339;50.840;4.346;2023-08-21T02:08:47;22.70;99.90
25410;DHT22;13339;50.840;4.346;2023-08-21T02:11:12;22.60;99.90
25410;DHT22;13339;50.840;4.346;2023-08-21T02:13:38;22.70;99.90
25410;DHT22;13339;50.840;4.346;2023-08-21T02:16:04;22.80;99.90
25410;DHT22;13339;50.840;4.346;2023-08-21T02:18:29;22.80;99.90
25410;DHT22;13339;50.840;4.346;2023-08-21T02:20:55;22.80;99.90
25410;DHT22;13339;50.840;4.346;2023-08-21T02:23:20;22.80;99.90
25410;DHT22;13339;50.840;4.346;2023-08-21T02:25:46;22.80;99.90
25410;DHT22;13339;50.840;4.346;2023-08-21T02:28:12;22.90;99.90
25410;DHT22;13339;50.840;4.346;2023-08-21T02:30:41;22.80;99.90
25410;DHT22;13339;50.840;4.346;2023-08-21T02:33:07;22.70;99.90
25410;DHT22;13339;50.840;4.346;2023-08-21T02:35:33;22.70;99.90
25410;DHT22;13339;50.840;4.346;2023-08-21T02:37:59;22.80;99.90
25410;DHT22;13339;50.840;4.346;2023-08-21T02:40:24;22.80;99.90
25410;DHT22;13339;50.840;4.346;2023-08-21T02:42:50;22.80;99.90
25410;DHT22;13339;50.840;4.346;2023-08-21T02:45:16;22.80;99.90
25410;DHT22;13339;50.840;4.346;2023-08-21T02:47:42;22.80;99.90
25410;DHT22;13339;50.840;4.346;2023-08-21T02:50:09;22.70;99.90
25410;DHT22;13339;50.840;4.346;2023-08-21T02:52:36;22.70;99.90
25410;DHT22;13339;50.840;4.346;2023-08-21T02:55:02;22.70;99.90
25410;DHT22;13339;50.840;4.346;2023-08-21T02:57:28;22.70;99.90
25410;DHT22;13339;50.840;4.346;2023-08-21T02:59:55;22.50;99.90
25410;DHT22;13339;50.840;4.346;2023-08-21T03:02:21;22.50;99.90
25410;DHT22;13339;50.840;4.346;2023-08-21T03:04:47;22.50;99.90
25410;DHT22;13339;50.840;4.346;2023-08-21T03:07:13;22.30;99.90
25410;DHT22;13339;50.840;4.346;2023-08-21T03:09:40;22.30;99.90
25410;DHT22;13339;50.840;4.346;2023-08-21T03:12:06;22.30;99.90
25410;DHT22;13339;50.840;4.346;2023-08-21T03:14:32;22.30;99.90
25410;DHT22;13339;50.840;4.346;2023-08-21T03:16:58;22.30;99.90
25410;DHT22;13339;50.840;4.346;2023-08-21T03:19:23;22.40;99.90
25410;DHT22;13339;50.840;4.346;2023-08-21T03:21:49;22.10;99.90
25410;DHT22;13339;50.840;4.346;2023-08-21T03:24:15;22.10;99.90
25410;DHT22;13339;50.840;4.346;2023-08-21T03:26:41;22.10;99.90
25410;DHT22;13339;50.840;4.346;2023-08-21T03:29:06;22.20;99.90
25410;DHT22;13339;50.840;4.346;2023-08-21T03:31:32;22.20;99.90
25410;DHT22;13339;50.840;4.346;2023-08-21T03:33:57;22.30;99.90
25410;DHT22;13339;50.840;4.346;2023-08-21T03:36:24;22.30;99.90
25410;DHT22;13339;50.840;4.346;2023-08-21T03:39:00;22.30;99.90
25410;DHT22;13339;50.840;4.346;2023-08-21T03:41:27;22.30;99.90
25410;DHT22;13339;50.840;4.346;2023-08-21T03:43:53;22.20;99.90
25410;DHT22;13339;50.840;4.346;2023-08-21T03:46:18;22.30;99.90
25410;DHT22;13339;50.840;4.346;2023-08-21T03:48:44;22.10;99.90
25410;DHT22;13339;50.840;4.346;2023-08-21T03:51:10;22.10;99.90
25410;DHT22;13339;50.840;4.346;2023-08-21T03:53:36;22.20;99.90
25410;DHT22;13339;50.840;4.346;2023-08-21T03:56:01;22.10;99.90
25410;DHT22;13339;50.840;4.346;2023-08-21T03:58:27;22.20;99.90
25410;DHT22;13339;50.840;4.346;2023-08-21T04:00:53;22.10;99.90
25410;DHT22;13339;50.840;4.346;2023-08-21T04:03:19;22.10;99.90
25410;DHT22;13339;50.840;4.346;2023-08-21T04:05:45;22.20;99.90
25410;DHT22;13339;50.840;4.346;2023-08-21T04:08:10;22.20;99.90
25410;DHT22;13339;50.840;4.346;2023-08-21T04:10:36;22.30;99.90
25410;DHT22;13339;50.840;4.346;2023-08-21T04:13:02;22.40;99.90
25410;DHT22;13339;50.840;4.346;2023-08-21T04:15:28;22.30;99.90
25410;DHT22;13339;50.840;4.346;2023-08-21T04:17:53;22.30;99.90
25410;DHT22;13339;50.840;4.346;2023-08-21T04:20:22;22.30;99.90
25410;DHT22;13339;50.840;4.346;2023-08-21T04:22:49;22.20;99.90
25410;DHT22;13339;50.840;4.346;2023-08-21T04:25:15;22.20;99.90
25410;DHT22;13339;50.840;4.346;2023-08-21T04:27:41;22.20;99.90
25410;DHT22;13339;50.840;4.346;2023-08-21T04:30:08;22.10;99.90
25410;DHT22;13339;50.840;4.346;2023-08-21T04:32:34;22.10;99.90
25410;DHT22;13339;50.840;4.346;2023-08-21T04:34:59;22.10;99.90
25410;DHT22;13339;50.840;4.346;2023-08-21T04:37:25;22.20;99.90
25410;DHT22;13339;50.840;4.346;2023-08-21T04:39:52;22.10;99.90
25410;DHT22;13339;50.840;4.346;2023-08-21T04:42:17;22.00;99.90
25410;DHT22;13339;50.840;4.346;2023-08-21T04:44:43;21.90;99.90
25410;DHT22;13339;50.840;4.346;2023-08-21T04:47:21;21.80;99.90
25410;DHT22;13339;50.840;4.346;2023-08-21T04:49:49;21.70;99.90
25410;DHT22;13339;50.840;4.346;2023-08-21T04:52:15;21.60;99.90
25410;DHT22;13339;50.840;4.346;2023-08-21T04:54:41;21.50;99.90
25410;DHT22;13339;50.840;4.346;2023-08-21T04:57:06;21.60;99.90
25410;DHT22;13339;50.840;4.346;2023-08-21T04:59:33;21.50;99.90
25410;DHT22;13339;50.840;4.346;2023-08-21T05:01:59;21.30;99.90
25410;DHT22;13339;50.840;4.346;2023-08-21T05:04:24;21.30;99.90
25410;DHT22;13339;50.840;4.346;2023-08-21T05:06:50;21.30;99.90
25410;DHT22;13339;50.840;4.346;2023-08-21T05:09:15;21.40;99.90
25410;DHT22;13339;50.840;4.346;2023-08-21T05:11:41;21.60;99.90
25410;DHT22;13339;50.840;4.346;2023-08-21T05:14:06;21.70;99.90
25410;DHT22;13339;50.840;4.346;2023-08-21T05:16:32;21.70;99.90
25410;DHT22;13339;50.840;4.346;2023-08-21T05:18:58;21.70;99.90
25410;DHT22;13339;50.840;4.346;2023-08-21T05:21:24;21.80;99.90
25410;DHT22;13339;50.840;4.346;2023-08-21T05:23:49;21.80;99.90
25410;DHT22;13339;50.840;4.346;2023-08-21T05:26:15;21.60;99.90
25410;DHT22;13339;50.840;4.346;2023-08-21T05:28:40;21.70;99.90
25410;DHT22;13339;50.840;4.346;2023-08-21T05:31:06;21.70;99.90
25410;DHT22;13339;50.840;4.346;2023-08-21T05:33:31;21.70;99.90
25410;DHT22;13339;50.840;4.346;2023-08-21T05:35:57;21.70;99.90
25410;DHT22;13339;50.840;4.346;2023-08-21T05:38:23;21.80;99.90
25410;DHT22;13339;50.840;4.346;2023-08-21T05:40:49;21.80;99.90
25410;DHT22;13339;50.840;4.346;2023-08-21T05:43:16;21.60;99.90
25410;DHT22;13339;50.840;4.346;2023-08-21T05:45:42;21.70;99.90
25410;DHT22;13339;50.840;4.346;2023-08-21T05:48:08;21.90;99.90
25410;DHT22;13339;50.840;4.346;2023-08-21T05:50:34;21.90;99.90
25410;DHT22;13339;50.840;4.346;2023-08-21T05:53:03;21.80;99.90
25410;DHT22;13339;50.840;4.346;2023-08-21T05:55:29;22.00;99.90
25410;DHT22;13339;50.840;4.346;2023-08-21T05:57:55;22.00;99.90
25410;DHT22;13339;50.840;4.346;2023-08-21T06:00:20;22.10;99.90
25410;DHT22;13339;50.840;4.346;2023-08-21T06:02:46;22.20;99.90
25410;DHT22;13339;50.840;4.346;2023-08-21T06:05:12;22.20;99.90
25410;DHT22;13339;50.840;4.346;2023-08-21T06:07:37;22.10;99.90
25410;DHT22;13339;50.840;4.346;2023-08-21T06:10:03;21.90;99.90
25410;DHT22;13339;50.840;4.346;2023-08-21T06:12:30;22.00;99.90
25410;DHT22;13339;50.840;4.346;2023-08-21T06:14:55;22.10;99.90
25410;DHT22;13339;50.840;4.346;2023-08-21T06:17:21;22.20;99.90
25410;DHT22;13339;50.840;4.346;2023-08-21T06:19:47;22.20;99.90
25410;DHT22;13339;50.840;4.346;2023-08-21T06:22:13;22.30;99.90
25410;DHT22;13339;50.840;4.346;2023-08-21T06:24:38;22.40;99.90
25410;DHT22;13339;50.840;4.346;2023-08-21T06:27:04;22.50;99.90
25410;DHT22;13339;50.840;4.346;2023-08-21T06:29:30;22.40;99.90
25410;DHT22;13339;50.840;4.346;2023-08-21T06:31:55;22.40;99.90
25410;DHT22;13339;50.840;4.346;2023-08-21T06:34:21;22.40;99.90
25410;DHT22;13339;50.840;4.346;2023-08-21T06:36:47;22.40;99.90
25410;DHT22;13339;50.840;4.346;2023-08-21T06:39:12;22.40;99.90
25410;DHT22;13339;50.840;4.346;2023-08-21T06:41:38;22.30;99.90
25410;DHT22;13339;50.840;4.346;2023-08-21T06:44:04;22.10;99.90
25410;DHT22;13339;50.840;4.346;2023-08-21T06:46:30;22.00;99.90
25410;DHT22;13339;50.840;4.346;2023-08-21T06:48:55;22.10;99.90
25410;DHT22;13339;50.840;4.346;2023-08-21T06:51:21;22.10;99.90
25410;DHT22;13339;50.840;4.346;2023-08-21T06:53:46;22.20;99.90
25410;DHT22;13339;50.840;4.346;2023-08-21T06:56:12;22.00;99.90
25410;DHT22;13339;50.840;4.346;2023-08-21T06:58:38;21.80;99.90
25410;DHT22;13339;50.840;4.346;2023-08-21T07:01:03;21.80;99.90
25410;DHT22;13339;50.840;4.346;2023-08-21T07:03:29;21.80;99.90
25410;DHT22;13339;50.840;4.346;2023-08-21T07:05:56;22.00;99.90
25410;DHT22;13339;50.840;4.346;2023-08-21T07:08:22;22.00;99.90
25410;DHT22;13339;50.840;4.346;2023-08-21T07:10:48;21.90;99.90
25410;DHT22;13339;50.840;4.346;2023-08-21T07:13:14;22.00;99.90
25410;DHT22;13339;50.840;4.346;2023-08-21T07:15:40;22.20;99.90
25410;DHT22;13339;50.840;4.346;2023-08-21T07:18:05;22.20;99.90
25410;DHT22;13339;50.840;4.346;2023-08-21T07:20:31;22.40;99.90
25410;DHT22;13339;50.840;4.346;2023-08-21T07:22:58;22.60;99.90
25410;DHT22;13339;50.840;4.346;2023-08-21T07:25:23;22.50;99.90
25410;DHT22;13339;50.840;4.346;2023-08-21T07:27:51;22.30;99.90
25410;DHT22;13339;50.840;4.346;2023-08-21T07:30:19;22.50;99.90
25410;DHT22;13339;50.840;4.346;2023-08-21T07:32:45;22.80;99.90
25410;DHT22;13339;50.840;4.346;2023-08-21T07:35:11;22.90;99.90
25410;DHT22;13339;50.840;4.346;2023-08-21T07:37:37;22.90;99.90
25410;DHT22;13339;50.840;4.346;2023-08-21T07:40:04;23.00;99.90
25410;DHT22;13339;50.840;4.346;2023-08-21T07:42:30;23.00;99.90
25410;DHT22;13339;50.840;4.346;2023-08-21T07:44:56;23.10;99.90
25410;DHT22;13339;50.840;4.346;2023-08-21T07:47:21;23.10;99.90
25410;DHT22;13339;50.840;4.346;2023-08-21T07:49:47;23.10;99.90
25410;DHT22;13339;50.840;4.346;2023-08-21T07:52:12;23.20;99.90
25410;DHT22;13339;50.840;4.346;2023-08-21T07:54:38;23.30;99.90
25410;DHT22;13339;50.840;4.346;2023-08-21T07:57:04;23.30;99.90
25410;DHT22;13339;50.840;4.346;2023-08-21T07:59:29;23.40;99.90
25410;DHT22;13339;50.840;4.346;2023-08-21T08:01:55;23.40;99.90
25410;DHT22;13339;50.840;4.346;2023-08-21T08:04:21;23.50;99.90
25410;DHT22;13339;50.840;4.346;2023-08-21T08:06:48;23.60;99.90
25410;DHT22;13339;50.840;4.346;2023-08-21T08:09:13;23.70;99.90
25410;DHT22;13339;50.840;4.346;2023-08-21T08:11:39;23.80;99.90
25410;DHT22;13339;50.840;4.346;2023-08-21T08:14:05;23.90;99.90
25410;DHT22;13339;50.840;4.346;2023-08-21T08:16:30;24.00;99.90
25410;DHT22;13339;50.840;4.346;2023-08-21T08:18:56;23.70;99.90
25410;DHT22;13339;50.840;4.346;2023-08-21T08:21:23;23.80;99.90
25410;DHT22;13339;50.840;4.346;2023-08-21T08:23:49;23.80;99.90
25410;DHT22;13339;50.840;4.346;2023-08-21T08:26:14;23.90;99.90
25410;DHT22;13339;50.840;4.346;2023-08-21T08:28:40;23.90;99.90
25410;DHT22;13339;50.840;4.346;2023-08-21T08:31:05;23.90;99.90
25410;DHT22;13339;50.840;4.346;2023-08-21T08:33:31;24.00;99.90
25410;DHT22;13339;50.840;4.346;2023-08-21T08:35:57;24.20;99.90
25410;DHT22;13339;50.840;4.346;2023-08-21T08:38:22;24.30;99.90
25410;DHT22;13339;50.840;4.346;2023-08-21T08:40:50;24.20;99.90
25410;DHT22;13339;50.840;4.346;2023-08-21T08:43:17;24.30;99.90
25410;DHT22;13339;50.840;4.346;2023-08-21T08:45:45;24.30;99.90
25410;DHT22;13339;50.840;4.346;2023-08-21T08:48:12;24.40;99.90
25410;DHT22;13339;50.840;4.346;2023-08-21T08:50:39;24.50;99.90
25410;DHT22;13339;50.840;4.346;2023-08-21T08:53:06;24.50;99.90
25410;DHT22;13339;50.840;4.346;2023-08-21T08:55:32;24.60;99.90
25410;DHT22;13339;50.840;4.346;2023-08-21T08:57:58;24.70;99.90
25410;DHT22;13339;50.840;4.346;2023-08-21T09:00:25;24.60;99.90
25410;DHT22;13339;50.840;4.346;2023-08-21T09:02:51;24.70;99.90
25410;DHT22;13339;50.840;4.346;2023-08-21T09:05:17;24.80;99.90
25410;DHT22;13339;50.840;4.346;2023-08-21T09:07:43;24.80;99.90
25410;DHT22;13339;50.840;4.346;2023-08-21T09:10:13;24.70;99.90
25410;DHT22;13339;50.840;4.346;2023-08-21T09:12:40;24.60;99.90
25410;DHT22;13339;50.840;4.346;2023-08-21T09:15:07;24.80;99.90
25410;DHT22;13339;50.840;4.346;2023-08-21T09:17:33;25.00;99.90
25410;DHT22;13339;50.840;4.346;2023-08-21T09:20:06;25.00;99.90
25410;DHT22;13339;50.840;4.346;2023-08-21T09:22:33;25.10;99.90
25410;DHT22;13339;50.840;4.346;2023-08-21T09:25:08;25.20;99.90
25410;DHT22;13339;50.840;4.346;2023-08-21T09:27:39;25.30;99.90
25410;DHT22;13339;50.840;4.346;2023-08-21T09:30:08;25.50;99.90
25410;DHT22;13339;50.840;4.346;2023-08-21T09:32:56;25.40;99.90
25410;DHT22;13339;50.840;4.346;2023-08-21T09:35:23;25.40;99.90
25410;DHT22;13339;50.840;4.346;2023-08-21T09:37:49;25.40;99.90
25410;DHT22;13339;50.840;4.346;2023-08-21T09:40:18;25.40;99.90
25410;DHT22;13339;50.840;4.346;2023-08-21T09:42:44;25.40;99.90
25410;DHT22;13339;50.840;4.346;2023-08-21T09:45:10;25.50;99.90
25410;DHT22;13339;50.840;4.346;2023-08-21T09:47:37;25.50;99.90
25410;DHT22;13339;50.840;4.346;2023-08-21T09:50:04;25.70;99.90
25410;DHT22;13339;50.840;4.346;2023-08-21T09:52:30;25.90;99.90
25410;DHT22;13339;50.840;4.346;2023-08-21T09:54:57;26.00;99.90
25410;DHT22;13339;50.840;4.346;2023-08-21T09:57:23;26.10;99.90
25410;DHT22;13339;50.840;4.346;2023-08-21T09:59:53;26.00;99.90
25410;DHT22;13339;50.840;4.346;2023-08-21T10:02:20;26.00;99.90
25410;DHT22;13339;50.840;4.346;2023-08-21T10:04:47;26.10;99.90
25410;DHT22;13339;50.840;4.346;2023-08-21T10:07:16;26.20;99.90
25410;DHT22;13339;50.840;4.346;2023-08-21T10:09:42;26.40;99.90
25410;DHT22;13339;50.840;4.346;2023-08-21T10:12:09;26.60;99.90
25410;DHT22;13339;50.840;4.346;2023-08-21T10:14:36;26.70;99.90
25410;DHT22;13339;50.840;4.346;2023-08-21T10:17:01;26.80;99.90
25410;DHT22;13339;50.840;4.346;2023-08-21T10:19:31;26.90;99.90
25410;DHT22;13339;50.840;4.346;2023-08-21T10:21:57;27.00;99.90
25410;DHT22;13339;50.840;4.346;2023-08-21T10:24:28;27.00;99.90
25410;DHT22;13339;50.840;4.346;2023-08-21T10:26:59;27.10;99.90
25410;DHT22;13339;50.840;4.346;2023-08-21T10:29:25;27.20;99.90
25410;DHT22;13339;50.840;4.346;2023-08-21T10:32:01;27.40;99.90
25410;DHT22;13339;50.840;4.346;2023-08-21T10:34:36;27.60;99.90
25410;DHT22;13339;50.840;4.346;2023-08-21T10:37:10;27.70;99.90
25410;DHT22;13339;50.840;4.346;2023-08-21T10:39:39;27.80;99.90
25410;DHT22;13339;50.840;4.346;2023-08-21T10:42:10;27.90;99.90
25410;DHT22;13339;50.840;4.346;2023-08-21T10:47:36;28.10;99.90
25410;DHT22;13339;50.840;4.346;2023-08-21T10:50:08;28.10;99.90
25410;DHT22;13339;50.840;4.346;2023-08-21T10:52:42;27.90;99.90
25410;DHT22;13339;50.840;4.346;2023-08-21T10:55:11;27.90;99.90
25410;DHT22;13339;50.840;4.346;2023-08-21T10:57:37;27.90;99.90
25410;DHT22;13339;50.840;4.346;2023-08-21T11:00:08;28.10;99.90
25410;DHT22;13339;50.840;4.346;2023-08-21T11:02:42;28.30;99.90
25410;DHT22;13339;50.840;4.346;2023-08-21T11:05:08;28.30;99.90
25410;DHT22;13339;50.840;4.346;2023-08-21T11:07:39;28.20;99.90
25410;DHT22;13339;50.840;4.346;2023-08-21T11:10:07;28.30;99.90
25410;DHT22;13339;50.840;4.346;2023-08-21T11:12:34;28.50;99.90
25410;DHT22;13339;50.840;4.346;2023-08-21T11:14:59;28.70;99.90
25410;DHT22;13339;50.840;4.346;2023-08-21T11:17:25;28.80;99.90
25410;DHT22;13339;50.840;4.346;2023-08-21T11:19:50;28.80;99.90
25410;DHT22;13339;50.840;4.346;2023-08-21T11:22:17;28.90;99.90
25410;DHT22;13339;50.840;4.346;2023-08-21T11:24:45;29.00;99.90
25410;DHT22;13339;50.840;4.346;2023-08-21T11:27:13;29.10;99.90
25410;DHT22;13339;50.840;4.346;2023-08-21T11:32:20;29.00;99.90
25410;DHT22;13339;50.840;4.346;2023-08-21T11:34:52;29.00;99.90
25410;DHT22;13339;50.840;4.346;2023-08-21T11:37:20;29.10;99.90
25410;DHT22;13339;50.840;4.346;2023-08-21T11:39:50;29.00;99.90
25410;DHT22;13339;50.840;4.346;2023-08-21T11:42:18;28.90;99.90
25410;DHT22;13339;50.840;4.346;2023-08-21T11:44:51;29.00;99.90
25410;DHT22;13339;50.840;4.346;2023-08-21T11:47:18;28.90;99.90
25410;DHT22;13339;50.840;4.346;2023-08-21T11:49:45;28.90;99.90
25410;DHT22;13339;50.840;4.346;2023-08-21T11:52:13;28.70;99.90
25410;DHT22;13339;50.840;4.346;2023-08-21T11:54:40;28.30;99.90
25410;DHT22;13339;50.840;4.346;2023-08-21T11:57:11;28.40;99.90
25410;DHT22;13339;50.840;4.346;2023-08-21T11:59:37;28.50;99.90
25410;DHT22;13339;50.840;4.346;2023-08-21T12:02:27;28.60;99.90
25410;DHT22;13339;50.840;4.346;2023-08-21T12:04:55;28.70;99.90
25410;DHT22;13339;50.840;4.346;2023-08-21T12:07:26;28.70;99.90
25410;DHT22;13339;50.840;4.346;2023-08-21T12:09:51;28.60;99.90
25410;DHT22;13339;50.840;4.346;2023-08-21T12:12:17;28.50;99.90
25410;DHT22;13339;50.840;4.346;2023-08-21T12:14:43;28.80;99.90
25410;DHT22;13339;50.840;4.346;2023-08-21T12:17:09;28.70;99.90
25410;DHT22;13339;50.840;4.346;2023-08-21T12:19:34;28.40;99.90
25410;DHT22;13339;50.840;4.346;2023-08-21T12:22:00;28.50;99.90
25410;DHT22;13339;50.840;4.346;2023-08-21T12:24:26;28.40;99.90
25410;DHT22;13339;50.840;4.346;2023-08-21T12:26:52;28.30;99.90
25410;DHT22;13339;50.840;4.346;2023-08-21T12:29:17;28.30;99.90
25410;DHT22;13339;50.840;4.346;2023-08-21T12:31:43;28.50;99.90
25410;DHT22;13339;50.840;4.346;2023-08-21T12:34:08;28.50;99.90
25410;DHT22;13339;50.840;4.346;2023-08-21T12:36:35;28.60;99.90
25410;DHT22;13339;50.840;4.346;2023-08-21T12:39:04;28.90;99.90
25410;DHT22;13339;50.840;4.346;2023-08-21T12:41:31;29.00;99.90
25410;DHT22;13339;50.840;4.346;2023-08-21T12:43:58;28.90;99.90
25410;DHT22;13339;50.840;4.346;2023-08-21T12:46:24;29.00;99.90
25410;DHT22;13339;50.840;4.346;2023-08-21T12:48:51;29.00;99.90
25410;DHT22;13339;50.840;4.346;2023-08-21T12:51:17;29.10;99.90
25410;DHT22;13339;50.840;4.346;2023-08-21T12:53:43;29.30;99.90
25410;DHT22;13339;50.840;4.346;2023-08-21T12:56:09;29.30;99.90
25410;DHT22;13339;50.840;4.346;2023-08-21T12:58:34;29.50;99.90
25410;DHT22;13339;50.840;4.346;2023-08-21T13:01:00;29.60;99.90
25410;DHT22;13339;50.840;4.346;2023-08-21T13:03:25;29.70;99.90
25410;DHT22;13339;50.840;4.346;2023-08-21T13:05:51;29.60;99.90
25410;DHT22;13339;50.840;4.346;2023-08-21T13:08:17;29.60;99.90
25410;DHT22;13339;50.840;4.346;2023-08-21T13:10:42;29.60;99.90
25410;DHT22;13339;50.840;4.346;2023-08-21T13:13:08;29.60;99.90
25410;DHT22;13339;50.840;4.346;2023-08-21T13:15:34;29.50;99.90
25410;DHT22;13339;50.840;4.346;2023-08-21T13:17:59;29.50;99.90
25410;DHT22;13339;50.840;4.346;2023-08-21T13:20:25;29.70;99.90
25410;DHT22;13339;50.840;4.346;2023-08-21T13:22:51;29.70;99.90
25410;DHT22;13339;50.840;4.346;2023-08-21T13:25:24;29.80;99.90
25410;DHT22;13339;50.840;4.346;2023-08-21T13:27:51;29.90;99.90
25410;DHT22;13339;50.840;4.346;2023-08-21T13:30:17;30.00;99.90
25410;DHT22;13339;50.840;4.346;2023-08-21T13:32:43;29.90;99.90
25410;DHT22;13339;50.840;4.346;2023-08-21T13:35:09;29.90;99.90
25410;DHT22;13339;50.840;4.346;2023-08-21T13:37:36;29.90;99.90
25410;DHT22;13339;50.840;4.346;2023-08-21T13:40:02;29.80;99.90
25410;DHT22;13339;50.840;4.346;2023-08-21T13:42:37;29.70;99.90
25410;DHT22;13339;50.840;4.346;2023-08-21T13:45:07;29.70;99.90
25410;DHT22;13339;50.840;4.346;2023-08-21T13:47:33;29.70;99.90
25410;DHT22;13339;50.840;4.346;2023-08-21T13:49:59;29.80;99.90
25410;DHT22;13339;50.840;4.346;2023-08-21T13:52:25;29.70;99.90
25410;DHT22;13339;50.840;4.346;2023-08-21T13:54:50;29.50;99.90
25410;DHT22;13339;50.840;4.346;2023-08-21T13:57:16;29.50;99.90
25410;DHT22;13339;50.840;4.346;2023-08-21T13:59:41;29.40;99.90
25410;DHT22;13339;50.840;4.346;2023-08-21T14:02:07;29.30;99.90
25410;DHT22;13339;50.840;4.346;2023-08-21T14:04:33;29.40;99.90
25410;DHT22;13339;50.840;4.346;2023-08-21T14:06:58;29.50;99.90
25410;DHT22;13339;50.840;4.346;2023-08-21T14:09:24;29.50;99.90
25410;DHT22;13339;50.840;4.346;2023-08-21T14:11:49;29.60;99.90
25410;DHT22;13339;50.840;4.346;2023-08-21T14:14:15;29.60;99.90
25410;DHT22;13339;50.840;4.346;2023-08-21T14:16:41;29.30;99.90
25410;DHT22;13339;50.840;4.346;2023-08-21T14:19:06;29.10;99.90
25410;DHT22;13339;50.840;4.346;2023-08-21T14:21:32;29.20;99.90
25410;DHT22;13339;50.840;4.346;2023-08-21T14:23:57;29.30;99.90
25410;DHT22;13339;50.840;4.346;2023-08-21T14:26:23;29.40;99.90
25410;DHT22;13339;50.840;4.346;2023-08-21T14:28:49;29.40;99.90
25410;DHT22;13339;50.840;4.346;2023-08-21T14:31:16;29.50;99.90
25410;DHT22;13339;50.840;4.346;2023-08-21T14:33:41;29.60;99.90
25410;DHT22;13339;50.840;4.346;2023-08-21T14:36:07;29.70;99.90
25410;DHT22;13339;50.840;4.346;2023-08-21T14:38:33;29.70;99.90
25410;DHT22;13339;50.840;4.346;2023-08-21T14:40:58;29.70;99.90
25410;DHT22;13339;50.840;4.346;2023-08-21T14:43:24;29.60;99.90
25410;DHT22;13339;50.840;4.346;2023-08-21T14:45:49;29.60;99.90
25410;DHT22;13339;50.840;4.346;2023-08-21T14:48:16;29.40;99.90
25410;DHT22;13339;50.840;4.346;2023-08-21T14:50:41;29.40;99.90
25410;DHT22;13339;50.840;4.346;2023-08-21T14:53:07;29.40;99.90
25410;DHT22;13339;50.840;4.346;2023-08-21T14:55:33;29.40;99.90
25410;DHT22;13339;50.840;4.346;2023-08-21T14:57:59;29.40;99.90
25410;DHT22;13339;50.840;4.346;2023-08-21T15:00:24;29.50;99.90
25410;DHT22;13339;50.840;4.346;2023-08-21T15:02:50;29.60;99.90
25410;DHT22;13339;50.840;4.346;2023-08-21T15:05:16;29.40;99.90
25410;DHT22;13339;50.840;4.346;2023-08-21T15:07:42;29.50;99.90
25410;DHT22;13339;50.840;4.346;2023-08-21T15:10:09;29.60;99.80
25410;DHT22;13339;50.840;4.346;2023-08-21T15:12:35;29.70;99.90
25410;DHT22;13339;50.840;4.346;2023-08-21T15:15:01;29.40;99.90
25410;DHT22;13339;50.840;4.346;2023-08-21T15:17:26;29.30;99.90
25410;DHT22;13339;50.840;4.346;2023-08-21T15:19:53;29.20;99.90
25410;DHT22;13339;50.840;4.346;2023-08-21T15:22:19;29.20;99.90
25410;DHT22;13339;50.840;4.346;2023-08-21T15:24:45;29.30;99.90
25410;DHT22;13339;50.840;4.346;2023-08-21T15:27:11;29.30;99.90
25410;DHT22;13339;50.840;4.346;2023-08-21T15:29:38;29.40;99.90
25410;DHT22;13339;50.840;4.346;2023-08-21T15:32:04;29.40;99.90
25410;DHT22;13339;50.840;4.346;2023-08-21T15:34:30;29.20;99.90